Time;durP1;ratioP1;P1;durP2;ratioP2;P2;SDS_P1;SDS_P2;PMS_P1;PMS_P2;Temp;Humidity;BMP_temperature;BMP_pressure;BME280_temperature;BME280_humidity;BME280_pressure;Samples;Min_cycle;Max_cycle;Signal;HPM_P1;HPM_P2
2022/09/27 00:00:42;;;;;;;7.00;2.43;;;15.50;70.80;;;;;;5003150;28;20201;-96
2022/09/27 00:03:54;;;;;;;8.60;2.90;;;15.50;70.80;;;;;;5004857;28;20208;-96
2022/09/27 00:06:42;;;;;;;8.60;2.10;;;15.50;70.80;;;;;;5021516;28;20202;-95
2022/09/27 00:09:33;;;;;;;7.00;2.00;;;15.50;71.00;;;;;;5005893;28;20216;-96
2022/09/27 00:12:31;;;;;;;7.23;2.07;;;15.50;70.90;;;;;;5002700;28;20217;-96
2022/09/27 00:15:01;;;;;;;10.50;2.23;;;15.50;70.60;;;;;;4995849;28;20197;-95
2022/09/27 00:17:59;;;;;;;10.07;2.90;;;15.50;70.90;;;;;;5000909;28;20199;-95
2022/09/27 00:27:38;;;;;;;7.30;2.17;;;15.50;70.50;;;;;;4997326;28;20291;-95
2022/09/27 00:30:15;;;;;;;11.10;3.40;;;15.60;70.70;;;;;;5006394;28;20221;-96
2022/09/27 00:32:44;;;;;;;8.07;2.43;;;15.50;70.20;;;;;;5002270;28;20233;-96
2022/09/27 00:35:12;;;;;;;9.67;2.87;;;15.60;70.40;;;;;;5000833;28;20210;-92
2022/09/27 00:37:48;;;;;;;11.70;3.20;;;15.60;70.70;;;;;;5004049;28;20199;-96
2022/09/27 00:40:38;;;;;;;5.77;1.60;;;15.60;70.30;;;;;;5005669;28;20216;-95
2022/09/27 00:43:20;;;;;;;10.67;3.53;;;15.50;70.30;;;;;;5004028;28;20562;-95
2022/09/27 00:45:52;;;;;;;11.20;3.10;;;15.50;69.50;;;;;;5334209;23;20712;-91
2022/09/27 00:48:30;;;;;;;6.67;2.13;;;15.60;69.60;;;;;;5031980;28;20208;-95
2022/09/27 00:51:24;;;;;;;;;;;;;;;;;;;;;
2022/09/27 00:54:17;;;;;;;7.37;2.47;;;15.50;69.60;;;;;;5035911;28;20222;-95
2022/09/27 00:57:16;;;;;;;8.10;2.13;;;15.60;68.80;;;;;;5035507;28;20275;-96
2022/09/27 00:59:52;;;;;;;12.30;3.13;;;15.60;68.40;;;;;;5039198;28;20208;-96
2022/09/27 01:02:35;;;;;;;10.93;3.13;;;15.50;68.70;;;;;;5038094;28;20199;-96
2022/09/27 01:22:03;;;;;;;4.57;1.73;;;15.50;68.50;;;;;;5022509;22;20226;-96
2022/09/27 01:28:22;;;;;;;10.97;3.17;;;15.60;68.70;;;;;;5010010;28;20236;-96
2022/09/27 01:31:30;;;;;;;11.13;3.13;;;15.50;68.40;;;;;;5013242;28;20202;-96
2022/09/27 01:34:26;;;;;;;8.93;2.70;;;15.50;68.70;;;;;;5008568;28;20226;-96
2022/09/27 01:37:14;;;;;;;10.50;3.23;;;15.50;68.60;;;;;;5012636;28;20188;-91
2022/09/27 01:39:53;;;;;;;14.67;4.13;;;15.60;68.60;;;;;;5112436;22;20447;-96
2022/09/27 01:45:48;;;;;;;6.63;2.20;;;15.50;68.60;;;;;;5021318;28;20671;-96
2022/09/27 01:48:57;;;;;;;8.67;2.23;;;15.50;69.30;;;;;;5017084;28;20226;-95
2022/09/27 01:54:56;;;;;;;11.87;3.13;;;15.50;69.00;;;;;;5005411;28;20276;-96
2022/09/27 01:57:39;;;;;;;8.07;2.07;;;15.50;69.00;;;;;;5011543;28;20226;-96
2022/09/27 02:00:33;;;;;;;13.80;3.93;;;15.50;68.50;;;;;;5001613;28;20202;-95
2022/09/27 02:03:13;;;;;;;10.17;2.73;;;15.50;68.50;;;;;;4996823;28;20205;-95
2022/09/27 02:06:08;;;;;;;4.77;1.67;;;15.50;68.40;;;;;;5002853;28;20205;-96
2022/09/27 02:08:42;;;;;;;8.17;2.40;;;15.50;67.90;;;;;;5005748;28;20675;-95
2022/09/27 02:12:00;;;;;;;12.13;3.97;;;15.60;68.40;;;;;;5020514;28;20244;-96
2022/09/27 02:14:39;;;;;;;10.07;3.10;;;15.50;68.20;;;;;;5001404;28;20206;-96
2022/09/27 02:17:31;;;;;;;5.93;2.17;;;15.50;68.30;;;;;;5010703;28;20208;-96
2022/09/27 02:26:45;;;;;;;12.90;3.20;;;15.50;68.20;;;;;;4992124;28;20213;-94
2022/09/27 02:32:36;;;;;;;9.03;2.60;;;15.50;68.40;;;;;;5019429;28;20210;-96
2022/09/27 02:38:53;;;;;;;6.80;2.13;;;15.50;68.10;;;;;;5015845;28;20226;-96
2022/09/27 02:41:26;;;;;;;8.27;2.60;;;15.50;68.20;;;;;;5008881;28;20281;-96
2022/09/27 02:47:32;;;;;;;6.30;2.03;;;15.50;67.70;;;;;;5038046;23;20241;-96
2022/09/27 02:50:53;;;;;;;12.43;3.57;;;15.50;68.20;;;;;;5031662;28;20200;-96
2022/09/27 02:53:54;;;;;;;6.43;1.87;;;15.50;67.70;;;;;;5017879;28;20234;-96
2022/09/27 02:59:29;;;;;;;4.63;1.73;;;15.40;68.00;;;;;;5019149;28;20206;-96
2022/09/27 03:02:07;;;;;;;10.00;3.20;;;15.40;68.30;;;;;;5012235;28;20647;-96
2022/09/27 03:08:40;;;;;;;7.50;2.07;;;15.40;69.20;;;;;;4982763;28;20210;-95
2022/09/27 03:12:06;;;;;;;6.37;1.87;;;15.30;69.20;;;;;;5009093;28;20229;-96
2022/09/27 03:15:00;;;;;;;8.00;2.40;;;15.30;69.30;;;;;;4981388;23;20239;-96
2022/09/27 03:17:37;;;;;;;7.83;2.47;;;15.30;69.70;;;;;;5025714;28;20275;-96
2022/09/27 03:20:26;;;;;;;9.57;2.50;;;15.20;69.80;;;;;;5026766;28;20210;-96
2022/09/27 03:23:03;;;;;;;8.90;2.30;;;15.20;70.10;;;;;;5016082;28;20224;-96
2022/09/27 03:25:30;;;;;;;5.60;2.00;;;15.20;70.30;;;;;;5024169;28;20226;-95
2022/09/27 03:31:34;;;;;;;9.50;2.10;;;15.10;70.80;;;;;;5019796;28;20203;-96
2022/09/27 03:37:41;;;;;;;7.13;2.23;;;15.10;71.20;;;;;;5303460;22;20276;-95
2022/09/27 03:44:03;;;;;;;7.30;2.07;;;15.10;71.70;;;;;;5019405;28;20214;-95
2022/09/27 04:02:55;;;;;;;7.50;1.83;;;14.90;70.50;;;;;;5042204;28;20287;-96
2022/09/27 04:08:23;;;;;;;24.17;7.13;;;14.80;70.00;;;;;;5068466;22;20246;-96
2022/09/27 04:14:32;;;;;;;9.00;2.70;;;14.80;70.30;;;;;;4992136;28;20301;-96
2022/09/27 04:20:50;;;;;;;4.67;1.83;;;14.80;69.90;;;;;;5016931;28;20207;-96
2022/09/27 04:33:16;;;;;;;5.63;1.97;;;14.70;70.40;;;;;;5049750;22;20243;-96
2022/09/27 04:38:22;;;;;;;7.80;2.07;;;14.70;70.80;;;;;;5240455;22;20240;-96
2022/09/27 04:40:51;;;;;;;5.70;1.97;;;14.70;70.90;;;;;;5011501;28;20215;-91
2022/09/27 04:48:49;;;;;;;17.27;4.43;;;14.60;68.80;;;;;;4994232;28;20182;-94
2022/09/27 04:51:18;;;;;;;17.13;4.67;;;14.60;68.50;;;;;;5004878;28;20209;-96
2022/09/27 05:00:05;;;;;;;5.53;1.77;;;14.60;69.70;;;;;;4974003;28;20238;-96
2022/09/27 05:08:21;;;;;;;9.17;2.67;;;14.60;70.30;;;;;;5373138;23;20475;-94
2022/09/27 05:14:29;;;;;;;10.80;3.20;;;14.60;70.50;;;;;;5075122;23;20255;-95
2022/09/27 05:16:56;;;;;;;9.07;2.57;;;14.60;70.50;;;;;;5030601;28;20218;-94
2022/09/27 05:19:24;;;;;;;7.23;2.30;;;14.60;70.60;;;;;;5043897;28;20233;-92
2022/09/27 05:21:51;;;;;;;7.73;2.53;;;14.60;70.80;;;;;;5033294;28;20210;-93
2022/09/27 05:24:20;;;;;;;7.83;2.57;;;14.60;71.00;;;;;;5033758;28;20195;-92
2022/09/27 05:26:51;;;;;;;7.80;2.03;;;14.50;71.10;;;;;;5033923;28;20686;-92
2022/09/27 05:29:18;;;;;;;3.60;1.40;;;14.50;71.20;;;;;;5033860;28;20210;-93
2022/09/27 05:31:51;;;;;;;5.33;1.73;;;14.40;71.40;;;;;;5026764;28;20222;-93
2022/09/27 05:34:19;;;;;;;8.80;2.70;;;14.40;72.00;;;;;;5031709;28;20244;-90
2022/09/27 05:36:54;;;;;;;9.03;2.20;;;14.30;72.30;;;;;;5033138;28;20305;-93
2022/09/27 05:39:23;;;;;;;7.67;2.33;;;14.20;72.70;;;;;;5036367;28;20208;-93
2022/09/27 05:42:20;;;;;;;18.93;5.03;;;14.20;72.70;;;;;;5025177;28;20212;-93
2022/09/27 05:44:51;;;;;;;12.17;3.50;;;14.10;73.40;;;;;;4992056;28;20270;-94
2022/09/27 05:47:18;;;;;;;10.87;2.73;;;14.00;73.00;;;;;;5026643;28;20799;-94
2022/09/27 05:49:45;;;;;;;9.47;2.40;;;14.00;73.10;;;;;;5037521;28;20205;-92
2022/09/27 05:52:15;;;;;;;7.07;2.17;;;13.90;73.30;;;;;;5054945;23;20231;-95
2022/09/27 05:54:44;;;;;;;12.07;3.70;;;13.80;73.60;;;;;;5034200;28;20337;-93
2022/09/27 05:57:11;;;;;;;13.10;3.70;;;13.80;74.10;;;;;;5031537;28;20209;-94
2022/09/27 05:59:40;;;;;;;6.83;1.97;;;13.70;74.60;;;;;;5033276;28;20206;-95
2022/09/27 06:02:10;;;;;;;10.93;3.23;;;13.70;74.10;;;;;;5027715;28;20206;-95
2022/09/27 06:04:44;;;;;;;7.43;2.33;;;13.60;74.50;;;;;;5039138;28;20207;-96
2022/09/27 06:07:13;;;;;;;11.03;2.73;;;13.60;75.00;;;;;;5024621;28;20198;-94
2022/09/27 06:09:44;;;;;;;6.33;2.33;;;13.60;75.10;;;;;;5033162;28;20237;-94
2022/09/27 06:12:20;;;;;;;10.47;2.90;;;13.60;75.60;;;;;;5032472;28;20265;-96
2022/09/27 06:14:51;;;;;;;5.90;1.90;;;13.60;76.20;;;;;;5038427;28;20233;-94
2022/09/27 06:20:08;;;;;;;13.20;3.67;;;13.50;76.40;;;;;;5007049;28;20221;-94
2022/09/27 06:23:00;;;;;;;6.73;2.03;;;13.50;76.00;;;;;;5039209;28;20275;-95
2022/09/27 06:25:33;;;;;;;4.50;1.83;;;13.40;76.90;;;;;;5043353;28;20205;-96
2022/09/27 06:28:02;;;;;;;6.97;2.13;;;13.40;77.20;;;;;;5032184;28;20205;-95
2022/09/27 06:30:29;;;;;;;9.77;2.47;;;13.40;78.00;;;;;;5039099;28;20276;-95
2022/09/27 06:32:59;;;;;;;11.17;2.80;;;13.40;78.00;;;;;;5035424;28;20555;-95
2022/09/27 06:35:35;;;;;;;8.10;2.50;;;13.30;78.60;;;;;;5045554;28;20693;-95
2022/09/27 06:41:43;;;;;;;9.07;2.87;;;13.30;79.60;;;;;;4993584;28;20232;-94
2022/09/27 06:47:20;;;;;;;12.10;2.80;;;13.30;80.70;;;;;;5173203;23;20299;-94
2022/09/27 06:49:49;;;;;;;6.17;2.33;;;13.30;80.40;;;;;;5040188;28;20214;-94
2022/09/27 06:52:18;;;;;;;10.53;3.07;;;13.30;80.60;;;;;;5027324;28;20351;-95
2022/09/27 06:54:49;;;;;;;16.10;4.40;;;13.40;80.90;;;;;;5018510;28;20240;-94
2022/09/27 07:00:41;;;;;;;14.07;3.47;;;13.40;83.10;;;;;;5010004;28;20257;-95
2022/09/27 07:03:10;;;;;;;18.53;4.60;;;13.50;83.40;;;;;;5003703;28;20584;-95
2022/09/27 07:08:41;;;;;;;9.37;2.97;;;13.50;83.40;;;;;;5020012;28;20200;-95
2022/09/27 07:11:54;;;;;;;11.53;2.77;;;13.60;82.50;;;;;;5017842;28;20655;-94
2022/09/27 07:14:27;;;;;;;7.97;2.60;;;13.60;84.50;;;;;;5013151;28;20659;-95
2022/09/27 07:20:16;;;;;;;10.60;3.40;;;13.70;83.70;;;;;;5036090;23;20245;-96
2022/09/27 07:22:46;;;;;;;7.57;2.87;;;13.70;82.80;;;;;;5034630;28;20647;-95
2022/09/27 07:25:22;;;;;;;13.13;2.87;;;13.70;82.10;;;;;;5038557;28;20205;-96
2022/09/27 07:30:46;;;;;;;12.63;2.63;;;13.80;81.50;;;;;;5029275;28;20222;-96
2022/09/27 07:33:15;;;;;;;10.87;3.00;;;13.80;80.70;;;;;;5042716;28;20206;-95
2022/09/27 07:35:44;;;;;;;8.13;2.67;;;13.90;79.10;;;;;;5042942;28;20293;-92
2022/09/27 07:38:44;;;;;;;8.93;2.33;;;13.90;78.70;;;;;;5011728;28;20200;-94
2022/09/27 07:41:55;;;;;;;12.50;2.80;;;13.90;78.20;;;;;;5031623;28;20203;-95
2022/09/27 07:44:25;;;;;;;5.87;1.83;;;14.00;77.30;;;;;;5028508;28;20201;-96
2022/09/27 07:47:19;;;;;;;11.13;2.80;;;14.00;76.70;;;;;;5050711;28;20336;-96
2022/09/27 07:49:55;;;;;;;16.20;4.63;;;14.00;76.20;;;;;;5049262;28;20205;-95
2022/09/27 07:52:22;;;;;;;8.00;2.93;;;14.00;76.20;;;;;;5043912;28;20252;-94
2022/09/27 07:54:54;;;;;;;3.73;1.33;;;14.00;75.80;;;;;;5030104;28;20301;-94
2022/09/27 07:58:10;;;;;;;13.80;3.20;;;14.10;75.00;;;;;;5022872;28;20204;-94
2022/09/27 08:00:39;;;;;;;12.00;2.73;;;14.10;74.30;;;;;;5036090;28;20209;-94
2022/09/27 08:06:27;;;;;;;15.53;4.13;;;14.10;73.60;;;;;;5018189;23;20331;-95
2022/09/27 08:08:57;;;;;;;7.40;2.20;;;14.20;73.10;;;;;;5019285;28;20290;-93
2022/09/27 08:11:27;;;;;;;6.20;1.83;;;14.20;73.50;;;;;;5018742;28;20667;-95
2022/09/27 08:14:07;;;;;;;10.93;3.13;;;14.20;74.40;;;;;;5019437;28;20303;-96
2022/09/27 08:16:36;;;;;;;7.67;2.00;;;14.30;75.30;;;;;;5000704;28;20223;-95
2022/09/27 08:19:15;;;;;;;7.50;2.40;;;14.30;73.60;;;;;;5015980;28;20253;-94
2022/09/27 08:26:05;;;;;;;4.53;1.53;;;14.40;72.20;;;;;;5006867;28;20250;-96
2022/09/27 08:28:33;;;;;;;5.10;1.67;;;14.50;73.00;;;;;;4923057;29;20207;-93
2022/09/27 08:34:40;;;;;;;9.37;2.53;;;14.70;71.30;;;;;;4981492;28;20217;-96
2022/09/27 08:37:11;;;;;;;11.57;3.37;;;14.80;71.40;;;;;;5003259;28;20206;-95
2022/09/27 08:39:38;;;;;;;8.33;1.80;;;15.00;74.60;;;;;;5005815;28;20246;-95
2022/09/27 08:42:22;;;;;;;4.60;1.47;;;15.10;71.00;;;;;;5006210;28;20200;-94
2022/09/27 08:44:59;;;;;;;5.07;1.70;;;15.30;69.70;;;;;;5008512;28;20203;-95
2022/09/27 08:50:30;;;;;;;9.43;2.63;;;15.70;67.70;;;;;;5042365;23;20289;-95
2022/09/27 08:53:04;;;;;;;11.17;2.30;;;16.00;68.20;;;;;;4996586;28;20222;-94
2022/09/27 08:58:45;;;;;;;12.93;3.20;;;16.30;68.00;;;;;;4987960;28;20289;-91
2022/09/27 09:01:17;;;;;;;7.13;2.40;;;16.60;67.20;;;;;;4995448;28;20734;-94
2022/09/27 09:03:51;;;;;;;7.73;2.10;;;16.80;67.30;;;;;;4992146;28;22686;-94
2022/09/27 09:09:44;;;;;;;5.90;2.07;;;17.20;64.70;;;;;;4989184;28;20685;-92
2022/09/27 09:15:26;;;;;;;9.17;2.37;;;17.60;62.10;;;;;;5011851;22;20239;-96
2022/09/27 09:18:26;;;;;;;7.17;2.47;;;17.70;62.00;;;;;;5010296;28;20229;-91
2022/09/27 09:21:04;;;;;;;10.50;3.07;;;17.80;60.80;;;;;;5004964;28;20209;-94
2022/09/27 09:24:16;;;;;;;8.90;2.83;;;17.90;63.50;;;;;;5002230;28;20559;-94
2022/09/27 09:26:48;;;;;;;11.33;3.30;;;18.00;61.30;;;;;;4979049;28;20205;-95
2022/09/27 09:29:49;;;;;;;9.93;2.43;;;18.10;62.50;;;;;;4992879;28;20658;-95
2022/09/27 09:32:43;;;;;;;5.50;1.67;;;18.20;60.60;;;;;;4975434;28;20212;-94
2022/09/27 09:35:42;;;;;;;8.77;2.80;;;18.20;59.30;;;;;;4974841;28;20218;-95
2022/09/27 09:38:41;;;;;;;8.23;2.87;;;18.20;59.60;;;;;;4987891;28;20208;-92
2022/09/27 09:41:21;;;;;;;9.03;3.00;;;18.10;58.70;;;;;;4969552;28;20205;-95
2022/09/27 09:50:46;;;;;;;6.17;1.83;;;18.00;62.00;;;;;;4994386;23;20273;-95
2022/09/27 09:54:07;;;;;;;6.67;1.77;;;18.00;61.00;;;;;;4978409;28;20208;-95
2022/09/27 10:06:07;;;;;;;7.63;2.53;;;18.10;60.60;;;;;;5024649;23;20293;-94
2022/09/27 10:08:34;;;;;;;7.40;2.10;;;18.20;59.80;;;;;;5005114;28;20578;-96
2022/09/27 10:11:11;;;;;;;7.80;2.33;;;18.20;59.20;;;;;;4999771;28;20205;-94
2022/09/27 10:14:10;;;;;;;5.10;1.73;;;18.30;59.50;;;;;;4996918;28;20234;-91
2022/09/27 10:16:44;;;;;;;13.23;4.13;;;18.20;59.00;;;;;;4989440;28;20242;-94
2022/09/27 10:19:14;;;;;;;10.43;3.83;;;18.30;59.30;;;;;;4989977;28;20209;-92
2022/09/27 10:21:44;;;;;;;12.23;3.53;;;18.30;58.70;;;;;;4990723;28;20248;-90
2022/09/27 10:27:02;;;;;;;11.80;3.63;;;18.30;58.90;;;;;;4986381;28;20220;-91
2022/09/27 10:30:05;;;;;;;8.87;2.80;;;18.40;58.80;;;;;;4991196;28;20308;-93
2022/09/27 10:32:37;;;;;;;6.90;2.17;;;18.50;59.50;;;;;;4976588;28;20603;-94
2022/09/27 10:35:22;;;;;;;7.53;1.90;;;18.60;59.80;;;;;;4994174;28;20205;-94
2022/09/27 10:38:32;;;;;;;15.70;5.10;;;18.70;59.10;;;;;;4977017;28;20625;-96
2022/09/27 10:41:31;;;;;;;13.83;3.03;;;18.90;58.40;;;;;;4985582;28;20288;-96
2022/09/27 10:44:22;;;;;;;13.57;4.00;;;19.00;58.50;;;;;;4983715;28;20215;-94
2022/09/27 10:47:01;;;;;;;13.57;4.33;;;19.20;56.70;;;;;;4991490;28;20652;-94
2022/09/27 10:49:34;;;;;;;25.70;14.20;;;19.30;56.30;;;;;;4990968;28;20216;-90
2022/09/27 10:52:14;;;;;;;13.93;4.67;;;19.50;55.70;;;;;;4990147;28;20226;-91
2022/09/27 10:55:06;;;;;;;6.57;2.20;;;19.60;54.60;;;;;;4988236;28;20202;-90
2022/09/27 10:57:38;;;;;;;8.20;2.67;;;19.60;55.20;;;;;;4995310;28;20225;-91
2022/09/27 11:00:21;;;;;;;15.57;2.83;;;19.70;55.30;;;;;;4990641;28;20619;-94
2022/09/27 11:03:31;;;;;;;10.60;3.63;;;19.70;55.00;;;;;;5006575;28;20205;-93
2022/09/27 11:06:31;;;;;;;4.70;2.30;;;19.70;54.70;;;;;;4985016;28;20574;-95
2022/09/27 11:09:26;;;;;;;8.23;2.37;;;19.90;54.40;;;;;;4979743;28;20183;-94
2022/09/27 11:22:00;;;;;;;6.10;1.97;;;19.90;54.50;;;;;;4878934;29;20289;-95
2022/09/27 11:34:16;;;;;;;9.53;2.83;;;19.70;56.30;;;;;;5761017;22;20293;-96
2022/09/27 11:37:15;;;;;;;6.87;2.13;;;19.70;56.20;;;;;;5020474;28;20317;-96
2022/09/27 11:46:44;;;;;;;10.33;2.80;;;19.50;56.20;;;;;;5300312;23;20292;-90
2022/09/27 11:49:48;;;;;;;14.93;4.90;;;19.40;57.20;;;;;;5003294;28;20271;-95
2022/09/27 12:05:30;;;;;;;12.00;3.57;;;19.20;56.60;;;;;;4962795;23;20238;-92
2022/09/27 12:08:32;;;;;;;8.83;2.70;;;19.10;56.60;;;;;;4983343;28;20183;-96
2022/09/27 12:17:59;;;;;;;5.93;1.80;;;18.90;57.00;;;;;;4941079;29;20345;-94
2022/09/27 12:20:44;;;;;;;9.03;2.83;;;18.70;57.20;;;;;;4903303;29;20673;-96
2022/09/27 12:23:20;;;;;;;4.57;1.53;;;18.60;57.80;;;;;;4999413;28;20253;-96
2022/09/27 12:25:53;;;;;;;8.80;2.73;;;18.50;58.00;;;;;;5003958;28;20574;-94
2022/09/27 12:31:14;;;;;;;8.73;2.50;;;18.20;58.90;;;;;;5068440;23;20234;-96
2022/09/27 12:37:40;;;;;;;12.73;3.90;;;18.00;59.30;;;;;;4999024;23;20269;-93
2022/09/27 12:49:15;;;;;;;8.80;2.37;;;17.70;61.00;;;;;;5064187;22;20414;-96
2022/09/27 12:55:14;;;;;;;10.33;3.13;;;17.60;62.20;;;;;;5016117;28;20203;-96
2022/09/27 13:00:34;;;;;;;6.13;1.97;;;17.50;63.00;;;;;;5040846;22;20249;-96
2022/09/27 13:03:18;;;;;;;6.00;1.97;;;17.40;62.40;;;;;;5030038;28;20214;-96
2022/09/27 13:15:00;;;;;;;8.97;2.87;;;17.00;63.50;;;;;;5042144;22;20241;-96
2022/09/27 13:18:10;;;;;;;10.53;3.07;;;17.00;63.30;;;;;;5041591;28;20690;-96
2022/09/27 13:21:01;;;;;;;43.43;13.50;;;16.90;63.50;;;;;;5024834;22;20205;-94
2022/09/27 14:01:59;;;;;;;33.20;9.57;;;16.10;68.70;;;;;;5471082;22;21593;-95
2022/09/27 14:13:35;;;;;;;10.37;3.33;;;16.30;69.80;;;;;;5040365;22;20597;-96
2022/09/27 14:16:41;;;;;;;16.33;4.33;;;16.40;69.90;;;;;;5017418;28;20290;-94
2022/09/27 14:19:36;;;;;;;20.13;5.47;;;16.40;69.00;;;;;;5256745;23;20230;-96
2022/09/27 14:28:33;;;;;;;8.20;2.57;;;16.50;69.50;;;;;;4932733;29;20317;-93
2022/09/27 14:34:18;;;;;;;10.20;2.67;;;16.70;70.60;;;;;;4932302;29;20212;-90
2022/09/27 14:37:35;;;;;;;9.30;2.73;;;16.70;69.70;;;;;;4937561;29;20237;-96
2022/09/27 14:50:35;;;;;;;;;;;;;;;;;;;;;
2022/09/27 14:58:15;;;;;;;10.20;1.93;;;17.30;67.40;;;;;;5539787;22;20222;-96
2022/09/27 15:00:51;;;;;;;10.60;3.10;;;17.40;67.60;;;;;;5030366;28;20189;-95
2022/09/27 15:03:54;;;;;;;3.03;1.40;;;17.40;67.20;;;;;;5034304;28;20209;-96
2022/09/27 15:06:28;;;;;;;8.10;2.20;;;17.50;66.80;;;;;;5023385;28;20189;-96
2022/09/27 15:08:58;;;;;;;10.47;4.07;;;17.50;66.00;;;;;;5047366;23;20285;-95
2022/09/27 15:11:44;;;;;;;6.53;1.80;;;17.50;66.30;;;;;;5044251;28;20204;-96
2022/09/27 15:14:59;;;;;;;9.83;3.27;;;17.60;66.00;;;;;;5046788;28;20208;-96
2022/09/27 15:17:27;;;;;;;14.43;3.60;;;17.60;65.40;;;;;;5042194;28;20234;-92
2022/09/27 15:23:41;;;;;;;11.60;2.07;;;17.60;64.20;;;;;;5409686;22;20238;-96
2022/09/27 15:31:33;;;;;;;7.00;2.63;;;17.50;65.30;;;;;;5024591;28;20222;-96
2022/09/27 15:40:57;;;;;;;13.10;5.67;;;17.50;65.30;;;;;;5028240;28;20228;-95
2022/09/27 16:04:08;;;;;;;8.53;2.73;;;17.70;64.20;;;;;;5445084;22;20233;-96
2022/09/27 16:17:32;;;;;;;10.87;3.03;;;17.60;64.60;;;;;;5057082;22;20242;-96
2022/09/27 16:20:05;;;;;;;12.73;3.13;;;17.60;64.40;;;;;;5012801;28;20207;-91
2022/09/27 16:22:32;;;;;;;14.20;4.77;;;17.50;64.00;;;;;;4998703;28;20325;-91
2022/09/27 16:25:02;;;;;;;14.27;3.70;;;17.50;64.20;;;;;;5000968;28;20221;-89
2022/09/27 16:27:29;;;;;;;14.73;4.07;;;17.50;64.40;;;;;;5005839;28;20288;-90
2022/09/27 16:30:06;;;;;;;11.93;5.87;;;17.50;64.60;;;;;;5007281;28;20603;-90
2022/09/27 16:32:41;;;;;;;10.57;4.33;;;17.40;65.20;;;;;;5007982;28;20716;-90
2022/09/27 16:35:09;;;;;;;11.87;3.40;;;17.30;65.40;;;;;;5010554;28;20217;-92
2022/09/27 16:40:19;;;;;;;9.77;3.33;;;17.30;66.40;;;;;;5023942;22;20264;-93
2022/09/27 16:42:51;;;;;;;9.63;3.20;;;17.20;66.70;;;;;;4990842;28;20212;-92
2022/09/27 16:45:21;;;;;;;11.30;3.23;;;17.20;68.10;;;;;;4989653;28;20611;-93
2022/09/27 16:53:52;;;;;;;11.13;3.67;;;16.90;67.60;;;;;;4982945;28;20210;-93
2022/09/27 16:56:20;;;;;;;9.70;3.50;;;16.80;68.00;;;;;;4978461;28;20910;-92
2022/09/27 16:58:47;;;;;;;10.73;3.30;;;16.70;67.80;;;;;;4990564;28;20563;-92
2022/09/27 17:01:29;;;;;;;7.50;2.93;;;16.60;68.90;;;;;;4991331;28;20290;-93
2022/09/27 17:09:31;;;;;;;11.13;3.57;;;16.40;69.20;;;;;;4948066;28;20210;-92
2022/09/27 17:11:59;;;;;;;7.13;2.63;;;16.30;68.40;;;;;;4988545;28;20294;-90
2022/09/27 17:14:37;;;;;;;;;;;;;;;;;;;;;
2022/09/27 17:17:29;;;;;;;5.13;2.20;;;16.20;67.90;;;;;;4986980;28;20243;-91
2022/09/27 17:19:57;;;;;;;10.60;3.43;;;16.20;68.90;;;;;;4989024;28;20210;-92
2022/09/27 17:22:28;;;;;;;7.20;2.63;;;16.10;68.30;;;;;;4982331;28;20235;-92
2022/09/27 17:24:56;;;;;;;10.17;3.37;;;16.00;68.30;;;;;;4985982;28;20216;-92
2022/09/27 17:27:24;;;;;;;11.07;3.40;;;15.90;68.20;;;;;;4989671;28;20660;-93
2022/09/27 17:30:07;;;;;;;9.73;3.33;;;15.90;68.50;;;;;;4984212;28;20212;-93
2022/09/27 17:32:58;;;;;;;10.30;3.60;;;15.90;68.90;;;;;;4990563;28;20303;-92
2022/09/27 17:35:27;;;;;;;6.63;3.43;;;15.80;68.90;;;;;;4992060;28;20198;-93
2022/09/27 17:37:55;;;;;;;7.43;2.90;;;15.80;68.70;;;;;;4991595;28;20748;-92
2022/09/27 17:40:22;;;;;;;8.47;3.13;;;15.70;68.80;;;;;;4992763;28;20731;-91
2022/09/27 17:42:52;;;;;;;7.17;3.10;;;15.70;69.00;;;;;;4992176;28;20623;-93
2022/09/27 17:45:20;;;;;;;8.50;2.87;;;15.60;69.00;;;;;;4990551;28;20237;-94
2022/09/27 17:50:45;;;;;;;10.93;4.17;;;15.60;69.50;;;;;;4947090;28;20198;-94
2022/09/27 17:53:19;;;;;;;8.97;3.93;;;15.50;69.40;;;;;;4988280;28;20712;-93
2022/09/27 17:55:47;;;;;;;13.37;4.80;;;15.50;69.60;;;;;;4993091;28;20208;-91
2022/09/27 17:58:26;;;;;;;;;;;;;;;;;;;;;
2022/09/27 18:00:54;;;;;;;8.60;4.20;;;15.50;70.00;;;;;;4993944;28;20223;-93
2022/09/27 18:03:23;;;;;;;10.37;4.97;;;15.40;70.40;;;;;;4992186;28;20216;-93
2022/09/27 18:05:52;;;;;;;9.23;5.00;;;15.40;71.50;;;;;;4993095;28;20208;-93
2022/09/27 18:08:20;;;;;;;15.43;7.17;;;15.40;72.30;;;;;;4991287;28;20209;-95
2022/09/27 18:10:49;;;;;;;12.33;5.03;;;15.30;72.70;;;;;;4988889;28;20202;-96
2022/09/27 18:13:17;;;;;;;15.50;6.30;;;15.30;73.30;;;;;;4989001;28;20217;-95
2022/09/27 18:15:44;;;;;;;10.10;4.07;;;15.30;74.00;;;;;;4984814;28;20209;-94
2022/09/27 18:18:16;;;;;;;15.87;5.50;;;15.20;74.00;;;;;;4994717;28;20237;-94
2022/09/27 18:20:44;;;;;;;14.63;5.77;;;15.30;74.90;;;;;;4990998;28;20240;-95
2022/09/27 18:23:18;;;;;;;10.23;5.27;;;15.20;74.70;;;;;;4995208;28;20602;-94
2022/09/27 18:31:36;;;;;;;7.00;3.00;;;15.30;74.70;;;;;;5123496;23;20253;-94
2022/09/27 18:34:04;;;;;;;6.97;3.03;;;15.30;74.50;;;;;;4977432;28;20210;-93
2022/09/27 18:36:39;;;;;;;6.80;2.17;;;15.30;74.00;;;;;;4979747;28;20616;-93
2022/09/27 18:39:12;;;;;;;7.20;2.63;;;15.30;73.40;;;;;;4976267;28;20215;-92
2022/09/27 18:41:44;;;;;;;9.53;3.03;;;15.20;73.00;;;;;;4976337;28;20673;-93
2022/09/27 18:44:13;;;;;;;5.90;2.07;;;15.20;72.60;;;;;;4958593;29;20203;-94
2022/09/27 18:46:42;;;;;;;7.70;3.10;;;15.30;73.60;;;;;;4956619;28;20651;-92
2022/09/27 18:49:13;;;;;;;12.00;4.20;;;15.20;72.40;;;;;;4958705;28;20615;-95
2022/09/27 18:56:04;;;;;;;10.80;3.43;;;15.20;72.70;;;;;;4962673;29;20215;-96
2022/09/27 19:59:35;;;;;;;7.67;2.50;;;14.70;75.70;;;;;;5073036;23;20254;-96
2022/09/27 20:05:01;;;;;;;12.23;3.23;;;14.70;75.00;;;;;;5052811;23;20229;-96
2022/09/27 20:13:21;;;;;;;11.20;3.87;;;14.60;74.80;;;;;;5044964;28;20201;-96
2022/09/27 20:19:37;;;;;;;12.97;5.03;;;14.60;76.60;;;;;;5062595;23;20239;-96
2022/09/27 20:25:49;;;;;;;11.33;4.80;;;14.50;75.00;;;;;;5243173;22;20241;-96
2022/09/27 22:01:24;;;;;;;6.70;1.83;;;13.90;76.30;;;;;;5030219;28;20229;-96
2022/09/27 22:07:10;;;;;;;5.50;2.33;;;13.80;76.00;;;;;;5032200;28;20208;-96
2022/09/27 22:10:17;;;;;;;7.67;2.20;;;13.70;76.10;;;;;;4998367;28;20183;-96
